This is the latest recevied weather packets stored in our database for station/object N9VPV. If no packets are shown the sender has not sent any weather packets the latest 10 day(s).
| Time | Temp. | Humidity | Pressure | Rain* | Wind** | Luminosity | Snow |
|---|---|---|---|---|---|---|---|
| 1777513844 | 10.56° C | 48% | 1016.7 hPa | 0 mm | - | 0 W/m² | - |
| 1777512932 | 11.11° C | 47% | 1016.5 hPa | 0 mm | - | 0 W/m² | - |
| 1777512032 | 11.11° C | 45% | 1016.3 hPa | 0 mm | - | 0 W/m² | - |
| 1777511131 | 11.67° C | 42% | 1016.1 hPa | 0 mm | - | 0 W/m² | - |
| 1777510226 | 12.22° C | 41% | 1015.9 hPa | 0 mm | - | 0 W/m² | - |
| 1777509324 | 12.78° C | 40% | 1015.8 hPa | 0 mm | - | 0 W/m² | - |
| 1777508424 | 12.78° C | 38% | 1015.6 hPa | 0 mm | - | 0 W/m² | - |
| 1777507523 | 13.33° C | 39% | 1015.6 hPa | 0 mm | - | 0 W/m² | - |
| 1777506624 | 13.33° C | 38% | 1015.5 hPa | 0 mm | - | 0 W/m² | - |
| 1777505720 | 13.89° C | 37% | 1015.5 hPa | 0 mm | - | 0 W/m² | - |
| 1777504819 | 13.89° C | 37% | 1015.3 hPa | 0 mm | - | 0 W/m² | - |
| 1777503915 | 14.44° C | 35% | 1015.3 hPa | 0 mm | - | 0 W/m² | - |
| 1777503014 | 15° C | 34% | 1015.4 hPa | 0 mm | - | 0 W/m² | - |
| 1777502116 | 15.56° C | 35% | 1015.4 hPa | 0 mm | - | 0 W/m² | - |
| 1777501207 | 15.56° C | 33% | 1015.3 hPa | 0 mm | - | 0 W/m² | - |
| 1777500304 | 15.56° C | 35% | 1015.3 hPa | 0 mm | - | 19 W/m² | - |
| 1777499400 | 15.56° C | 36% | 1015.3 hPa | 0 mm | - | 0 W/m² | - |
| 1777498499 | 16.11° C | 34% | 1015.3 hPa | 0 mm | - | 19 W/m² | - |
| 1777497597 | 16.11° C | 37% | 1015.3 hPa | 0 mm | - | 114 W/m² | - |
| 1777496696 | 16.11° C | 35% | 1015.3 hPa | 0 mm | - | 148 W/m² | - |
| 1777495795 | 15.56° C | 41% | 1015.5 hPa | 0 mm | - | 169 W/m² | - |
| 1777494892 | 15.56° C | 39% | 1015.7 hPa | 0 mm | - | 186 W/m² | - |
| 1777493990 | 16.11° C | 40% | 1015.8 hPa | 0 mm | - | 250 W/m² | - |
| 1777493090 | 16.11° C | 43% | 1015.8 hPa | 0 mm | - | 301 W/m² | - |
| 1777492183 | 15.56° C | 45% | 1016 hPa | 0 mm | - | 334 W/m² | - |
* Rain latest hour (hover to see other rain measurements)
** Current wind speed in m/s (hover to see current wind gust speed)